createdAt,value
2022-11-02T00:01:30.987Z,13.70
2022-11-02T00:04:18.469Z,13.70
2022-11-02T00:07:08.608Z,13.70
2022-11-02T00:09:56.822Z,13.90
2022-11-02T00:12:44.188Z,13.80
2022-11-02T00:15:34.037Z,13.70
2022-11-02T00:18:21.258Z,13.80
2022-11-02T00:21:08.881Z,13.70
2022-11-02T00:23:59.155Z,13.70
2022-11-02T00:26:46.313Z,14.00
2022-11-02T00:29:34.655Z,13.50
2022-11-02T00:32:21.955Z,13.60
2022-11-02T00:35:10.396Z,13.60
2022-11-02T00:37:57.584Z,13.50
2022-11-02T00:40:46.417Z,13.50
2022-11-02T00:43:34.195Z,13.40
2022-11-02T00:46:21.360Z,13.40
2022-11-02T00:49:08.674Z,13.30
2022-11-02T00:51:56.624Z,13.30
2022-11-02T00:54:44.305Z,13.30
2022-11-02T00:57:33.152Z,13.20
2022-11-02T01:00:20.367Z,13.30
2022-11-02T01:03:08.225Z,13.40
2022-11-02T01:05:56.238Z,13.50
2022-11-02T01:08:43.978Z,13.50
2022-11-02T01:11:31.283Z,13.50
2022-11-02T01:14:19.897Z,13.50
2022-11-02T01:17:07.028Z,13.50
2022-11-02T01:19:55.135Z,13.40
2022-11-02T01:22:42.336Z,13.40
2022-11-02T01:25:29.624Z,13.30
2022-11-02T01:28:17.258Z,13.20
2022-11-02T01:31:06.277Z,13.20
2022-11-02T01:33:53.365Z,13.10
2022-11-02T01:36:41.794Z,13.00
2022-11-02T01:39:29.717Z,13.10
2022-11-02T01:42:18.558Z,13.10
2022-11-02T01:45:06.039Z,13.10
2022-11-02T01:47:56.089Z,13.10
2022-11-02T01:50:44.534Z,11.50
2022-11-02T01:53:33.454Z,13.00
2022-11-02T01:59:18.192Z,13.00
2022-11-02T02:02:06.817Z,13.00
2022-11-02T02:04:59.478Z,13.00
2022-11-02T02:07:47.382Z,12.90
2022-11-02T02:10:34.914Z,12.90
2022-11-02T02:13:26.759Z,12.90
2022-11-02T02:16:17.122Z,12.90
2022-11-02T02:19:10.288Z,12.90
2022-11-02T02:22:07.425Z,12.80
2022-11-02T02:25:00.287Z,12.90
2022-11-02T02:27:56.214Z,12.80
2022-11-02T02:30:47.946Z,12.80
2022-11-02T02:33:36.396Z,11.30
2022-11-02T02:36:26.024Z,12.70
2022-11-02T02:39:17.356Z,12.80
2022-11-02T02:42:10.962Z,12.80
2022-11-02T02:45:05.811Z,12.80
2022-11-02T02:47:55.906Z,12.80
2022-11-02T02:50:46.153Z,12.70
2022-11-02T02:53:35.174Z,12.60
2022-11-02T02:56:24.769Z,12.60
2022-11-02T02:59:15.667Z,12.60
2022-11-02T03:02:06.716Z,12.60
2022-11-02T03:04:54.511Z,12.50
2022-11-02T03:07:49.719Z,12.60
2022-11-02T03:10:43.355Z,13.20
2022-11-02T03:13:36.819Z,12.50
2022-11-02T03:16:32.464Z,12.60
2022-11-02T03:19:25.700Z,12.50
2022-11-02T03:22:15.257Z,12.50
2022-11-02T03:25:06.565Z,12.50
2022-11-02T03:27:56.333Z,12.40
2022-11-02T03:30:46.130Z,12.50
2022-11-02T03:33:36.123Z,12.50
2022-11-02T03:36:28.842Z,12.50
2022-11-02T03:39:19.184Z,12.40
2022-11-02T03:42:07.335Z,12.50
2022-11-02T03:44:59.282Z,12.50
2022-11-02T03:47:50.301Z,12.40
2022-11-02T03:50:39.470Z,12.40
2022-11-02T03:53:32.757Z,12.60
2022-11-02T03:56:22.460Z,12.40
2022-11-02T03:59:11.079Z,12.40
2022-11-02T04:02:00.033Z,12.30
2022-11-02T04:04:52.139Z,12.40
2022-11-02T04:08:01.128Z,12.30
2022-11-02T04:11:07.777Z,12.30
2022-11-02T04:14:12.760Z,12.30
2022-11-02T04:17:20.168Z,12.30
2022-11-02T04:20:11.741Z,12.40
2022-11-02T04:23:19.249Z,12.30
2022-11-02T04:26:08.804Z,12.20
2022-11-02T04:29:01.610Z,12.20
2022-11-02T04:31:51.364Z,12.20
2022-11-02T04:34:37.925Z,12.20
2022-11-02T04:37:39.245Z,12.10
2022-11-02T04:40:27.320Z,12.10
2022-11-02T04:43:15.862Z,12.10
2022-11-02T04:46:03.599Z,12.10
2022-11-02T04:48:50.956Z,12.10
2022-11-02T04:51:41.695Z,12.10
2022-11-02T04:54:31.458Z,12.10
2022-11-02T04:57:22.593Z,12.10
2022-11-02T05:00:13.991Z,12.20
2022-11-02T05:03:01.675Z,12.10
2022-11-02T05:05:48.938Z,12.20
2022-11-02T05:08:37.193Z,12.20
2022-11-02T05:11:24.802Z,12.10
2022-11-02T05:14:13.568Z,12.00
2022-11-02T05:17:03.081Z,12.00
2022-11-02T05:19:51.643Z,11.90
2022-11-02T05:22:42.561Z,11.80
2022-11-02T05:25:30.331Z,11.90
2022-11-02T05:28:18.637Z,11.80
2022-11-02T05:31:06.396Z,11.80
2022-11-02T05:33:56.767Z,11.70
2022-11-02T05:36:44.738Z,11.60
2022-11-02T05:39:32.097Z,11.60
2022-11-02T05:42:19.591Z,11.50
2022-11-02T05:45:07.588Z,11.20
2022-11-02T05:47:55.024Z,11.50
2022-11-02T05:50:43.826Z,11.50
2022-11-02T05:53:33.905Z,11.50
2022-11-02T05:56:25.043Z,11.40
2022-11-02T05:59:13.678Z,11.30
2022-11-02T06:02:01.672Z,11.40
2022-11-02T06:04:49.992Z,11.40
2022-11-02T06:07:39.079Z,11.40
2022-11-02T06:10:27.240Z,11.40
2022-11-02T06:13:14.327Z,11.40
2022-11-02T06:16:02.146Z,11.30
2022-11-02T06:18:50.221Z,11.30
2022-11-02T06:21:37.379Z,11.20
2022-11-02T06:24:26.727Z,11.20
2022-11-02T06:27:14.561Z,9.80
2022-11-02T06:30:01.879Z,11.30
2022-11-02T06:32:49.403Z,11.30
2022-11-02T06:35:36.587Z,11.20
2022-11-02T06:38:24.688Z,11.20
2022-11-02T06:41:13.978Z,11.10
2022-11-02T06:44:05.134Z,11.10
2022-11-02T06:46:53.273Z,11.00
2022-11-02T06:49:41.248Z,10.90
2022-11-02T06:52:28.450Z,11.00
2022-11-02T06:55:16.713Z,11.00
2022-11-02T06:58:06.051Z,11.00
2022-11-02T07:00:59.312Z,11.00
2022-11-02T07:03:46.463Z,11.10
2022-11-02T07:06:34.733Z,11.10
2022-11-02T07:09:22.880Z,11.00
2022-11-02T07:12:10.214Z,11.00
2022-11-02T07:14:59.557Z,10.90
2022-11-02T07:17:47.583Z,11.00
2022-11-02T07:20:35.284Z,11.00
2022-11-02T07:23:24.228Z,11.00
2022-11-02T07:26:12.618Z,10.90
2022-11-02T07:29:00.480Z,10.90
2022-11-02T07:31:48.991Z,11.00
2022-11-02T07:34:36.865Z,11.00
2022-11-02T07:37:24.930Z,11.00
2022-11-02T07:40:15.433Z,10.90
2022-11-02T07:43:04.011Z,11.00
2022-11-02T07:46:13.167Z,11.00
2022-11-02T07:49:02.609Z,11.00
2022-11-02T07:51:49.718Z,11.00
2022-11-02T07:54:41.995Z,11.00
2022-11-02T07:57:31.547Z,11.10
2022-11-02T08:00:19.712Z,11.10
2022-11-02T08:03:09.466Z,11.10
2022-11-02T08:06:02.012Z,11.10
2022-11-02T08:08:49.868Z,11.10
2022-11-02T08:11:37.276Z,11.10
2022-11-02T08:14:24.964Z,11.10
2022-11-02T08:17:13.068Z,11.10
2022-11-02T08:20:01.136Z,11.10
2022-11-02T08:22:50.612Z,11.20
2022-11-02T08:25:38.220Z,11.20
2022-11-02T08:28:26.838Z,11.30
2022-11-02T08:31:16.331Z,11.20
2022-11-02T08:34:03.806Z,11.20
2022-11-02T08:36:50.971Z,11.20
2022-11-02T08:39:39.536Z,11.30
2022-11-02T08:42:26.800Z,11.30
2022-11-02T08:45:14.267Z,11.30
2022-11-02T08:48:01.229Z,11.40
2022-11-02T08:50:49.777Z,11.40
2022-11-02T08:53:37.400Z,11.40
2022-11-02T08:56:25.875Z,11.50
2022-11-02T08:59:13.232Z,11.50
2022-11-02T09:02:01.384Z,11.50
2022-11-02T09:04:49.661Z,11.70
2022-11-02T09:07:37.401Z,11.90
2022-11-02T09:10:25.355Z,12.00
2022-11-02T09:13:15.401Z,12.10
2022-11-02T09:16:03.536Z,12.10
2022-11-02T09:18:51.402Z,12.10
2022-11-02T09:21:38.775Z,12.00
2022-11-02T09:24:26.302Z,12.20
2022-11-02T09:27:14.091Z,11.20
2022-11-02T09:30:03.800Z,12.00
2022-11-02T09:33:00.580Z,12.00
2022-11-02T09:35:49.127Z,12.00
2022-11-02T09:38:36.477Z,12.10
2022-11-02T09:41:26.786Z,12.10
2022-11-02T09:44:16.157Z,12.10
2022-11-02T09:50:17.141Z,12.30
2022-11-02T09:53:05.762Z,12.30
2022-11-02T09:55:54.639Z,12.30
2022-11-02T09:58:44.137Z,12.30
2022-11-02T10:01:45.255Z,11.80
2022-11-02T10:04:56.248Z,12.40
2022-11-02T10:07:52.816Z,12.40
2022-11-02T10:10:43.232Z,12.50
2022-11-02T10:13:35.809Z,12.50
2022-11-02T10:16:25.458Z,12.60
2022-11-02T10:19:15.242Z,12.60
2022-11-02T10:22:03.968Z,12.80
2022-11-02T10:24:52.848Z,12.70
2022-11-02T10:27:41.275Z,12.80
2022-11-02T10:30:29.030Z,12.80
2022-11-02T10:33:18.770Z,12.90
2022-11-02T10:36:18.578Z,12.90
2022-11-02T10:39:14.465Z,13.00
2022-11-02T10:42:18.592Z,13.10
2022-11-02T10:45:22.336Z,13.10
2022-11-02T10:48:16.933Z,13.20
2022-11-02T10:51:09.020Z,13.20
2022-11-02T10:53:56.645Z,13.30
2022-11-02T10:56:47.726Z,13.30
2022-11-02T10:59:35.248Z,13.30
2022-11-02T11:02:22.316Z,13.40
2022-11-02T11:05:14.536Z,13.50
2022-11-02T11:08:02.138Z,13.50
2022-11-02T11:10:50.709Z,13.50
2022-11-02T11:16:50.809Z,13.60
2022-11-02T11:19:40.972Z,13.60
2022-11-02T11:22:30.687Z,13.70
2022-11-02T11:25:27.676Z,13.80
2022-11-02T11:28:23.108Z,13.90
2022-11-02T11:31:14.735Z,14.10
2022-11-02T11:34:02.147Z,14.30
2022-11-02T11:36:52.121Z,14.40
2022-11-02T11:39:40.533Z,14.50
2022-11-02T11:42:29.488Z,14.60
2022-11-02T11:45:21.790Z,14.50
2022-11-02T11:48:23.976Z,14.50
2022-11-02T11:51:25.610Z,14.50
2022-11-02T11:54:22.777Z,14.40
2022-11-02T11:57:23.868Z,14.50
2022-11-02T12:00:26.908Z,14.40
2022-11-02T12:03:16.607Z,14.50
2022-11-02T12:06:07.734Z,14.50
2022-11-02T12:09:04.164Z,14.60
2022-11-02T12:11:58.699Z,14.80
2022-11-02T12:14:51.636Z,14.90
2022-11-02T12:17:44.713Z,15.20
2022-11-02T12:20:52.575Z,15.30
2022-11-02T12:23:51.302Z,15.60
2022-11-02T12:26:45.211Z,15.30
2022-11-02T12:29:50.376Z,15.10
2022-11-02T12:32:43.559Z,15.00
2022-11-02T12:35:42.448Z,15.00
2022-11-02T12:38:41.191Z,15.10
2022-11-02T12:41:39.095Z,15.20
2022-11-02T12:44:40.222Z,15.30
2022-11-02T12:47:36.864Z,15.20
2022-11-02T12:50:30.934Z,15.10
2022-11-02T12:53:28.379Z,15.00
2022-11-02T12:56:21.274Z,15.00
2022-11-02T12:59:11.803Z,15.00
2022-11-02T13:04:55.507Z,15.10
2022-11-02T13:07:46.294Z,15.10
2022-11-02T13:10:35.667Z,15.00
2022-11-02T13:13:29.993Z,15.00
2022-11-02T13:16:19.033Z,14.90
2022-11-02T13:19:07.957Z,15.00
2022-11-02T13:21:57.241Z,15.00
2022-11-02T13:24:47.056Z,15.00
2022-11-02T13:27:37.621Z,15.10
2022-11-02T13:30:29.607Z,15.10
2022-11-02T13:33:18.646Z,15.10
2022-11-02T13:36:07.120Z,15.20
2022-11-02T13:38:57.714Z,15.20
2022-11-02T13:41:59.655Z,15.10
2022-11-02T13:45:12.673Z,15.10
2022-11-02T13:48:12.327Z,15.00
2022-11-02T13:51:01.975Z,15.00
2022-11-02T13:53:56.755Z,15.00
2022-11-02T13:56:44.722Z,15.10
2022-11-02T13:59:35.930Z,15.40
2022-11-02T14:02:31.920Z,15.70
2022-11-02T14:05:26.682Z,15.80
2022-11-02T14:08:20.130Z,16.20
2022-11-02T14:11:22.865Z,16.30
2022-11-02T14:14:18.363Z,16.50
2022-11-02T14:17:18.869Z,16.60
2022-11-02T14:20:33.470Z,16.60
2022-11-02T14:23:43.440Z,16.50
2022-11-02T14:26:33.730Z,16.30
2022-11-02T14:29:49.693Z,16.20
2022-11-02T14:32:49.810Z,16.10
2022-11-02T14:35:41.545Z,15.90
2022-11-02T14:38:40.180Z,15.70
2022-11-02T14:41:38.299Z,15.40
2022-11-02T14:44:58.891Z,15.20
2022-11-02T14:47:46.581Z,15.00
2022-11-02T14:50:35.130Z,14.80
2022-11-02T14:53:26.486Z,14.70
2022-11-02T14:56:13.885Z,14.50
2022-11-02T14:59:03.258Z,14.60
2022-11-02T15:01:52.779Z,14.50
2022-11-02T15:04:48.341Z,14.50
2022-11-02T15:07:37.945Z,14.40
2022-11-02T15:10:39.412Z,14.30
2022-11-02T15:13:37.235Z,14.30
2022-11-02T15:16:26.918Z,14.20
2022-11-02T15:19:37.623Z,14.20
2022-11-02T15:22:34.229Z,14.10
2022-11-02T15:25:22.905Z,14.10
2022-11-02T15:28:14.143Z,14.00
2022-11-02T15:31:06.453Z,13.90
2022-11-02T15:33:57.741Z,13.90
2022-11-02T15:36:46.080Z,13.80
2022-11-02T15:39:33.881Z,13.60
2022-11-02T15:42:27.338Z,13.50
2022-11-02T15:45:33.910Z,13.60
2022-11-02T15:48:37.162Z,13.40
2022-11-02T15:51:31.247Z,13.30
2022-11-02T15:54:25.009Z,13.20
2022-11-02T15:57:16.377Z,13.10
2022-11-02T16:00:30.452Z,12.90
2022-11-02T16:03:18.485Z,12.70
2022-11-02T16:06:07.057Z,12.50
2022-11-02T16:09:01.908Z,12.30
2022-11-02T16:12:01.440Z,12.10
2022-11-02T16:14:53.650Z,12.00
2022-11-02T16:17:42.224Z,12.00
2022-11-02T16:20:30.529Z,11.90
2022-11-02T16:23:24.125Z,11.90
2022-11-02T16:26:19.680Z,12.10
2022-11-02T16:29:12.900Z,11.70
2022-11-02T16:32:02.416Z,11.50
2022-11-02T16:34:49.814Z,11.50
2022-11-02T16:37:37.411Z,11.40
2022-11-02T16:40:24.850Z,11.30
2022-11-02T16:43:15.037Z,11.30
2022-11-02T16:46:04.184Z,11.20
2022-11-02T16:49:03.693Z,11.10
2022-11-02T16:51:52.378Z,11.00
2022-11-02T16:54:41.392Z,10.80
2022-11-02T16:57:31.185Z,10.80
2022-11-02T17:00:21.274Z,10.80
2022-11-02T17:03:12.089Z,10.50
2022-11-02T17:06:02.604Z,10.60
2022-11-02T17:08:54.649Z,10.70
2022-11-02T17:11:43.662Z,10.70
2022-11-02T17:14:31.318Z,10.70
2022-11-02T17:17:33.063Z,10.70
2022-11-02T17:20:22.848Z,10.70
2022-11-02T17:23:11.750Z,10.80
2022-11-02T17:26:23.860Z,10.60
2022-11-02T17:29:30.938Z,10.60
2022-11-02T17:32:19.349Z,10.50
2022-11-02T17:35:16.161Z,10.40
2022-11-02T17:38:04.417Z,10.40
2022-11-02T17:40:53.294Z,10.40
2022-11-02T17:43:39.749Z,10.30
2022-11-02T17:46:29.799Z,10.40
2022-11-02T17:49:17.102Z,10.40
2022-11-02T17:52:06.240Z,10.40
2022-11-02T17:54:53.677Z,10.30
2022-11-02T17:57:40.927Z,10.40
2022-11-02T18:00:29.702Z,10.40
2022-11-02T18:03:19.424Z,10.40
2022-11-02T18:06:07.786Z,10.40
2022-11-02T18:09:14.250Z,10.30
2022-11-02T18:12:02.609Z,10.40
2022-11-02T18:14:50.505Z,10.40
2022-11-02T18:17:39.184Z,10.40
2022-11-02T18:20:27.886Z,10.40
2022-11-02T18:23:16.758Z,10.40
2022-11-02T18:26:05.517Z,10.40
2022-11-02T18:28:55.299Z,10.30
2022-11-02T18:31:42.350Z,10.30
2022-11-02T18:34:30.186Z,10.40
2022-11-02T18:37:18.469Z,10.30
2022-11-02T18:40:06.026Z,10.30
2022-11-02T18:42:54.728Z,10.30
2022-11-02T18:45:42.927Z,10.30
2022-11-02T18:48:30.764Z,10.30
2022-11-02T18:51:18.507Z,10.30
2022-11-02T18:54:07.053Z,10.30
2022-11-02T18:56:55.391Z,10.30
2022-11-02T18:59:44.955Z,10.30
2022-11-02T19:02:33.440Z,10.30
2022-11-02T19:05:38.947Z,10.20
2022-11-02T19:08:44.286Z,10.30
2022-11-02T19:11:33.202Z,10.10
2022-11-02T19:14:21.737Z,10.40
2022-11-02T19:17:11.173Z,10.40
2022-11-02T19:19:59.024Z,10.40
2022-11-02T19:22:49.618Z,10.40
2022-11-02T19:25:40.846Z,10.40
2022-11-02T19:28:28.679Z,10.50
2022-11-02T19:31:16.339Z,10.60
2022-11-02T19:34:05.646Z,10.70
2022-11-02T19:36:53.182Z,10.70
2022-11-02T19:39:40.333Z,11.30
2022-11-02T19:42:27.592Z,10.70
2022-11-02T19:45:17.244Z,10.70
2022-11-02T19:48:05.158Z,10.60
2022-11-02T19:50:53.901Z,10.70
2022-11-02T19:53:42.853Z,10.70
2022-11-02T19:56:30.959Z,10.80
2022-11-02T19:59:18.185Z,10.90
2022-11-02T20:02:05.908Z,11.00
2022-11-02T20:04:53.489Z,11.10
2022-11-02T20:07:42.280Z,11.20
2022-11-02T20:10:29.400Z,11.30
2022-11-02T20:13:16.807Z,11.30
2022-11-02T20:16:04.137Z,11.30
2022-11-02T20:18:52.522Z,11.40
2022-11-02T20:21:42.959Z,11.40
2022-11-02T20:24:32.895Z,11.40
2022-11-02T20:27:21.925Z,11.40
2022-11-02T20:30:10.261Z,11.40
2022-11-02T20:32:57.702Z,11.40
2022-11-02T20:35:45.458Z,11.40
2022-11-02T20:38:33.459Z,11.40
2022-11-02T20:41:23.911Z,11.40
2022-11-02T20:44:11.161Z,11.50
2022-11-02T20:46:59.036Z,11.50
2022-11-02T20:49:51.228Z,11.50
2022-11-02T20:52:39.412Z,11.50
2022-11-02T20:55:29.656Z,11.50
2022-11-02T20:58:19.719Z,11.50
2022-11-02T21:01:07.520Z,11.50
2022-11-02T21:03:55.342Z,11.50
2022-11-02T21:06:42.949Z,11.40
2022-11-02T21:09:31.289Z,11.30
2022-11-02T21:12:35.883Z,11.20
2022-11-02T21:15:25.150Z,11.20
2022-11-02T21:18:13.254Z,11.20
2022-11-02T21:21:04.316Z,11.20
2022-11-02T21:23:51.973Z,11.10
2022-11-02T21:26:39.908Z,11.20
2022-11-02T21:29:28.051Z,11.30
2022-11-02T21:32:17.828Z,11.30
2022-11-02T21:35:05.457Z,11.40
2022-11-02T21:37:56.574Z,11.40
2022-11-02T21:40:44.754Z,11.50
2022-11-02T21:43:33.468Z,11.50
2022-11-02T21:46:21.260Z,11.50
2022-11-02T21:49:10.341Z,11.50
2022-11-02T21:51:59.726Z,11.50
2022-11-02T21:54:49.702Z,11.50
2022-11-02T21:57:37.506Z,11.50
2022-11-02T22:00:46.172Z,11.60
2022-11-02T22:03:33.317Z,11.50
2022-11-02T22:06:27.109Z,11.50
2022-11-02T22:09:19.736Z,11.80
2022-11-02T22:12:24.487Z,11.60
2022-11-02T22:15:12.465Z,11.60
2022-11-02T22:18:00.145Z,11.60
2022-11-02T22:20:54.427Z,11.60
2022-11-02T22:23:43.086Z,11.60
2022-11-02T22:26:31.107Z,11.60
2022-11-02T22:29:18.452Z,11.60
2022-11-02T22:32:06.594Z,11.50
2022-11-02T22:34:54.076Z,11.50
2022-11-02T22:37:59.425Z,11.50
2022-11-02T22:40:48.465Z,11.50
2022-11-02T22:43:36.791Z,11.40
2022-11-02T22:46:24.888Z,11.40
2022-11-02T22:49:14.014Z,11.40
2022-11-02T22:52:02.253Z,11.40
2022-11-02T22:54:49.563Z,11.40
2022-11-02T22:57:38.535Z,11.40
2022-11-02T23:00:26.357Z,11.30
2022-11-02T23:03:14.431Z,11.40
2022-11-02T23:06:07.042Z,11.30
2022-11-02T23:08:56.515Z,11.40
2022-11-02T23:11:44.453Z,11.50
2022-11-02T23:14:33.507Z,11.30
2022-11-02T23:17:21.141Z,11.30
2022-11-02T23:20:08.602Z,11.40
2022-11-02T23:23:17.197Z,11.40
2022-11-02T23:26:04.938Z,11.40
2022-11-02T23:29:10.380Z,11.70
2022-11-02T23:32:16.813Z,11.40
2022-11-02T23:35:24.500Z,11.40
2022-11-02T23:38:12.252Z,11.40
2022-11-02T23:40:59.676Z,11.40
2022-11-02T23:43:47.756Z,11.40
2022-11-02T23:46:35.152Z,11.40
2022-11-02T23:49:24.788Z,11.40
2022-11-02T23:52:31.193Z,11.40
2022-11-02T23:55:41.205Z,11.40
2022-11-02T23:58:28.305Z,11.40
